createdAt,value
2023-04-14T00:00:49.076Z,10.70
2023-04-14T00:03:17.607Z,10.57
2023-04-14T00:05:45.894Z,12.35
2023-04-14T00:08:14.252Z,11.13
2023-04-14T00:10:42.358Z,13.75
2023-04-14T00:13:10.569Z,13.05
2023-04-14T00:15:40.516Z,12.68
2023-04-14T00:18:08.751Z,12.88
2023-04-14T00:20:37.162Z,12.88
2023-04-14T00:23:05.365Z,12.80
2023-04-14T00:25:33.706Z,11.43
2023-04-14T00:28:02.109Z,11.45
2023-04-14T00:30:30.505Z,12.48
2023-04-14T00:32:58.782Z,13.23
2023-04-14T00:35:27.167Z,10.75
2023-04-14T00:37:55.332Z,11.32
2023-04-14T00:40:23.656Z,10.90
2023-04-14T00:42:51.851Z,12.18
2023-04-14T00:45:20.035Z,14.63
2023-04-14T00:47:48.939Z,12.93
2023-04-14T00:52:51.702Z,14.27
2023-04-14T00:55:20.800Z,13.45
2023-04-14T01:00:18.450Z,13.32
2023-04-14T01:02:46.772Z,10.55
2023-04-14T01:07:43.587Z,13.77
2023-04-14T01:10:12.669Z,15.85
2023-04-14T01:12:46.947Z,14.13
2023-04-14T01:15:27.776Z,13.95
2023-04-14T01:18:09.655Z,14.75
2023-04-14T01:20:49.046Z,12.32
2023-04-14T01:23:35.180Z,13.10
2023-04-14T01:26:32.592Z,11.85
2023-04-14T01:29:13.123Z,12.95
2023-04-14T01:31:55.664Z,11.85
2023-04-14T01:34:31.452Z,13.80
2023-04-14T01:37:16.863Z,12.95
2023-04-14T01:39:55.284Z,12.27
2023-04-14T01:42:28.670Z,13.82
2023-04-14T01:45:02.972Z,12.65
2023-04-14T01:47:32.828Z,13.85
2023-04-14T01:50:04.193Z,13.40
2023-04-14T01:52:32.829Z,12.77
2023-04-14T01:57:30.396Z,14.15
2023-04-14T02:00:01.977Z,13.45
2023-04-14T02:02:33.485Z,14.85
2023-04-14T02:05:04.564Z,10.75
2023-04-14T02:07:35.672Z,12.20
2023-04-14T02:10:09.748Z,12.40
2023-04-14T02:12:44.883Z,11.43
2023-04-14T02:15:16.733Z,16.50
2023-04-14T02:17:48.314Z,14.07
2023-04-14T02:20:17.852Z,13.57
2023-04-14T02:22:45.919Z,10.48
2023-04-14T02:25:14.371Z,12.52
2023-04-14T02:27:50.279Z,13.23
2023-04-14T02:30:23.503Z,9.50
2023-04-14T02:33:02.225Z,11.98
2023-04-14T02:35:34.772Z,10.13
2023-04-14T02:38:19.026Z,12.40
2023-04-14T02:40:48.105Z,14.25
2023-04-14T02:43:33.918Z,12.00
2023-04-14T02:46:05.890Z,10.63
2023-04-14T02:48:36.442Z,11.13
2023-04-14T02:51:06.580Z,11.63
2023-04-14T02:53:35.684Z,12.32
2023-04-14T02:56:28.147Z,9.95
2023-04-14T02:58:58.819Z,11.05
2023-04-14T03:01:31.927Z,12.98
2023-04-14T03:04:00.955Z,9.52
2023-04-14T03:06:33.301Z,11.13
2023-04-14T03:11:33.559Z,10.63
2023-04-14T03:14:03.672Z,9.95
2023-04-14T03:16:34.299Z,12.38
2023-04-14T03:19:04.329Z,9.75
2023-04-14T03:21:37.122Z,12.10
2023-04-14T03:24:07.602Z,11.30
2023-04-14T03:26:37.404Z,12.27
2023-04-14T03:29:07.703Z,12.55
2023-04-14T03:31:37.836Z,8.68
2023-04-14T03:34:09.023Z,10.48
2023-04-14T03:36:44.301Z,13.95
2023-04-14T03:39:12.970Z,9.77
2023-04-14T03:41:42.899Z,8.15
2023-04-14T03:44:12.163Z,11.40
2023-04-14T03:46:42.237Z,8.88
2023-04-14T03:49:14.364Z,9.43
2023-04-14T03:51:44.267Z,11.25
2023-04-14T03:54:14.044Z,11.65
2023-04-14T03:56:45.081Z,10.05
2023-04-14T03:59:20.292Z,9.52
2023-04-14T04:01:49.587Z,9.43
2023-04-14T04:04:19.179Z,9.80
2023-04-14T04:06:47.719Z,8.68
2023-04-14T04:09:16.979Z,9.65
2023-04-14T04:11:48.306Z,10.40
2023-04-14T04:14:18.482Z,8.95
2023-04-14T04:16:50.555Z,8.75
2023-04-14T04:19:22.889Z,9.15
2023-04-14T04:21:55.985Z,9.18
2023-04-14T04:24:27.920Z,9.43
2023-04-14T04:26:56.949Z,9.40
2023-04-14T04:29:26.558Z,6.70
2023-04-14T04:31:55.431Z,8.80
2023-04-14T04:34:26.742Z,8.85
2023-04-14T04:36:55.777Z,7.68
2023-04-14T04:39:23.990Z,8.25
2023-04-14T04:42:01.305Z,8.82
2023-04-14T04:44:29.498Z,9.93
2023-04-14T04:46:57.918Z,8.52
2023-04-14T04:49:29.453Z,7.90
2023-04-14T04:52:03.001Z,7.10
2023-04-14T04:54:31.230Z,7.03
2023-04-14T04:56:59.728Z,7.75
2023-04-14T04:59:28.121Z,8.52
2023-04-14T05:01:56.427Z,8.20
2023-04-14T05:04:24.886Z,6.45
2023-04-14T05:06:53.028Z,5.78
2023-04-14T05:09:21.137Z,6.47
2023-04-14T05:11:49.287Z,7.53
2023-04-14T05:14:17.576Z,11.85
2023-04-14T05:16:45.750Z,7.45
2023-04-14T05:19:14.048Z,6.90
2023-04-14T05:21:42.259Z,8.23
2023-04-14T05:24:10.467Z,7.28
2023-04-14T05:26:57.648Z,6.18
2023-04-14T05:29:26.792Z,6.00
2023-04-14T05:31:55.026Z,9.20
2023-04-14T05:34:23.059Z,9.38
2023-04-14T05:36:51.304Z,7.32
2023-04-14T05:39:19.467Z,7.45
2023-04-14T05:41:47.745Z,7.30
2023-04-14T05:44:15.896Z,7.50
2023-04-14T05:46:44.080Z,6.05
2023-04-14T05:49:12.546Z,7.90
2023-04-14T05:51:40.915Z,7.97
2023-04-14T05:54:09.137Z,7.93
2023-04-14T05:59:05.473Z,5.90
2023-04-14T06:01:33.823Z,5.72
2023-04-14T06:04:02.406Z,5.65
2023-04-14T06:06:31.124Z,6.68
2023-04-14T06:08:59.526Z,9.63
2023-04-14T06:13:55.780Z,6.43
2023-04-14T06:16:24.096Z,8.70
2023-04-14T06:18:52.306Z,6.43
2023-04-14T06:21:20.499Z,7.63
2023-04-14T06:23:48.747Z,5.95
2023-04-14T06:26:16.991Z,6.50
2023-04-14T06:28:45.321Z,7.13
2023-04-14T06:31:13.433Z,6.70
2023-04-14T06:33:41.831Z,8.73
2023-04-14T06:36:09.997Z,7.80
2023-04-14T06:38:38.176Z,6.35
2023-04-14T06:41:06.596Z,6.53
2023-04-14T06:43:34.816Z,5.50
2023-04-14T06:46:03.054Z,5.78
2023-04-14T06:48:31.272Z,5.28
2023-04-14T06:50:59.616Z,6.60
2023-04-14T06:53:27.924Z,6.05
2023-04-14T06:55:56.408Z,6.65
2023-04-14T06:58:24.736Z,6.45
2023-04-14T07:01:03.764Z,7.05
2023-04-14T07:03:32.751Z,8.43
2023-04-14T07:06:06.288Z,5.38
2023-04-14T07:08:34.951Z,6.40
2023-04-14T07:11:05.493Z,8.18
2023-04-14T07:13:33.778Z,6.00
2023-04-14T07:16:02.991Z,6.13
2023-04-14T07:18:31.753Z,7.50
2023-04-14T07:21:03.450Z,7.22
2023-04-14T07:23:31.770Z,5.63
2023-04-14T07:26:00.842Z,8.18
2023-04-14T07:28:29.503Z,7.05
2023-04-14T07:30:57.560Z,8.05
2023-04-14T07:33:25.882Z,8.93
2023-04-14T07:36:03.038Z,6.30
2023-04-14T07:38:33.307Z,7.05
2023-04-14T07:41:06.029Z,8.70
2023-04-14T07:43:34.822Z,8.60
2023-04-14T07:46:04.565Z,8.00
2023-04-14T07:48:34.292Z,9.73
2023-04-14T07:51:02.687Z,6.68
2023-04-14T07:53:31.601Z,7.50
2023-04-14T07:56:00.525Z,8.10
2023-04-14T07:58:29.678Z,8.43
2023-04-14T08:00:58.401Z,7.88
2023-04-14T08:05:55.249Z,6.75
2023-04-14T08:08:23.868Z,11.35
2023-04-14T08:10:51.980Z,11.65
2023-04-14T08:13:20.434Z,11.50
2023-04-14T08:15:48.714Z,6.82
2023-04-14T08:18:17.340Z,11.35
2023-04-14T08:20:45.737Z,12.93
2023-04-14T08:23:14.381Z,14.35
2023-04-14T08:25:42.571Z,10.35
2023-04-14T08:28:10.880Z,8.40
2023-04-14T08:30:39.153Z,8.70
2023-04-14T08:33:07.351Z,16.88
2023-04-14T08:35:42.231Z,10.68
2023-04-14T08:38:11.238Z,11.48
2023-04-14T08:40:44.180Z,9.55
2023-04-14T08:43:15.284Z,14.35
2023-04-14T08:45:44.820Z,10.57
2023-04-14T08:48:15.324Z,8.77
2023-04-14T08:50:50.017Z,11.40
2023-04-14T08:53:23.077Z,10.65
2023-04-14T08:55:52.271Z,15.57
2023-04-14T08:58:20.716Z,13.65
2023-04-14T09:00:52.799Z,11.50
2023-04-14T09:03:22.077Z,11.50
2023-04-14T09:05:51.066Z,11.52
2023-04-14T09:08:22.432Z,12.15
2023-04-14T09:10:51.603Z,14.70
2023-04-14T09:13:21.844Z,12.18
2023-04-14T09:15:50.740Z,10.70
2023-04-14T09:18:19.039Z,11.57
2023-04-14T09:20:47.994Z,11.90
2023-04-14T09:23:36.569Z,11.45
2023-04-14T09:26:04.866Z,12.60
2023-04-14T09:28:33.172Z,10.57
2023-04-14T09:31:02.124Z,11.52
2023-04-14T09:35:58.557Z,9.45
2023-04-14T09:41:10.012Z,10.60
2023-04-14T09:43:38.162Z,10.80
2023-04-14T09:46:10.734Z,9.23
2023-04-14T09:48:59.170Z,12.07
2023-04-14T09:51:31.417Z,12.15
2023-04-14T09:54:06.197Z,13.18
2023-04-14T09:56:35.365Z,10.23
2023-04-14T10:01:34.274Z,12.57
2023-04-14T10:04:03.554Z,14.68
2023-04-14T10:06:31.897Z,13.48
2023-04-14T10:09:00.489Z,12.18
2023-04-14T10:11:31.024Z,12.80
2023-04-14T10:14:07.126Z,11.43
2023-04-14T10:16:35.452Z,11.55
2023-04-14T10:19:04.211Z,9.52
2023-04-14T10:21:33.111Z,11.80
2023-04-14T10:26:29.257Z,9.80
2023-04-14T10:28:57.855Z,10.00
2023-04-14T10:31:42.965Z,10.02
2023-04-14T10:34:15.741Z,9.55
2023-04-14T10:36:44.861Z,11.02
2023-04-14T10:39:13.698Z,11.25
2023-04-14T10:44:32.875Z,10.10
2023-04-14T10:47:03.678Z,14.32
2023-04-14T10:49:35.779Z,9.57
2023-04-14T10:52:27.778Z,10.27
2023-04-14T10:54:57.619Z,10.15
2023-04-14T10:57:27.384Z,9.88
2023-04-14T10:59:57.558Z,7.80
2023-04-14T11:02:36.030Z,9.30
2023-04-14T11:05:11.641Z,10.13
2023-04-14T11:07:48.298Z,11.13
2023-04-14T11:10:22.565Z,9.70
2023-04-14T11:13:14.985Z,11.50
2023-04-14T11:15:47.216Z,11.50
2023-04-14T11:18:17.715Z,11.88
2023-04-14T11:20:46.158Z,12.65
2023-04-14T11:23:16.860Z,12.70
2023-04-14T11:25:45.439Z,12.57
2023-04-14T11:28:13.695Z,9.43
2023-04-14T11:30:42.064Z,16.17
2023-04-14T11:33:10.377Z,12.60
2023-04-14T11:35:38.769Z,9.63
2023-04-14T11:38:11.481Z,9.32
2023-04-14T11:40:39.949Z,9.02
2023-04-14T11:43:08.153Z,8.40
2023-04-14T11:45:42.226Z,12.40
2023-04-14T11:48:11.901Z,10.80
2023-04-14T11:50:40.234Z,11.95
2023-04-14T11:53:14.963Z,8.05
2023-04-14T11:55:48.069Z,9.77
2023-04-14T11:58:21.498Z,9.07
2023-04-14T12:00:50.514Z,11.60
2023-04-14T12:05:47.509Z,9.63
2023-04-14T12:08:15.737Z,9.45
2023-04-14T12:10:44.112Z,15.70
2023-04-14T12:13:12.770Z,13.82
2023-04-14T12:15:42.974Z,11.93
2023-04-14T12:18:15.829Z,11.38
2023-04-14T12:20:47.007Z,11.40
2023-04-14T12:23:16.789Z,12.20
2023-04-14T12:25:45.101Z,10.32
2023-04-14T12:28:24.794Z,13.57
2023-04-14T12:30:54.317Z,11.82
2023-04-14T12:33:27.818Z,10.77
2023-04-14T12:36:06.620Z,15.43
2023-04-14T12:41:03.278Z,9.50
2023-04-14T12:43:37.240Z,10.02
2023-04-14T12:46:06.362Z,9.80
2023-04-14T12:48:48.237Z,10.57
2023-04-14T12:51:20.419Z,11.43
2023-04-14T12:53:49.687Z,10.95
2023-04-14T12:56:20.468Z,9.98
2023-04-14T12:58:49.829Z,11.38
2023-04-14T13:01:22.869Z,10.60
2023-04-14T13:03:54.684Z,8.40
2023-04-14T13:06:24.895Z,11.65
2023-04-14T13:08:54.925Z,11.07
2023-04-14T13:11:24.612Z,9.25
2023-04-14T13:13:53.893Z,8.73
2023-04-14T13:16:22.753Z,11.05
2023-04-14T13:18:54.675Z,10.10
2023-04-14T13:21:23.000Z,10.32
2023-04-14T13:23:51.129Z,7.05
2023-04-14T13:26:19.306Z,13.05
2023-04-14T13:28:47.758Z,8.00
2023-04-14T13:31:18.126Z,8.48
2023-04-14T13:33:46.493Z,11.00
2023-04-14T13:36:14.664Z,11.48
2023-04-14T13:38:42.831Z,9.73
2023-04-14T13:41:11.178Z,8.70
2023-04-14T13:43:39.348Z,11.18
2023-04-14T13:46:07.620Z,8.43
2023-04-14T13:48:35.870Z,8.55
2023-04-14T13:51:04.302Z,9.52
2023-04-14T13:53:32.607Z,9.50
2023-04-14T13:56:00.707Z,8.25
2023-04-14T13:58:28.994Z,7.10
2023-04-14T14:00:57.420Z,9.68
2023-04-14T14:03:26.588Z,9.75
2023-04-14T14:05:56.266Z,8.38
2023-04-14T14:08:24.429Z,8.68
2023-04-14T14:10:53.808Z,8.75
2023-04-14T14:13:22.116Z,7.32
2023-04-14T14:15:50.344Z,5.55
2023-04-14T14:18:18.778Z,7.18
2023-04-14T14:20:46.922Z,8.40
2023-04-14T14:23:15.170Z,6.05
2023-04-14T14:25:43.943Z,8.38
2023-04-14T14:30:40.821Z,7.95
2023-04-14T14:33:09.051Z,11.25
2023-04-14T14:35:37.273Z,8.60
2023-04-14T14:38:05.538Z,7.57
2023-04-14T14:40:33.808Z,6.80
2023-04-14T14:43:02.159Z,11.98
2023-04-14T14:45:30.707Z,6.85
2023-04-14T14:48:00.048Z,10.90
2023-04-14T14:50:28.562Z,9.32
2023-04-14T14:52:56.781Z,9.07
2023-04-14T14:55:25.067Z,11.48
2023-04-14T14:57:53.537Z,9.00
2023-04-14T15:00:21.814Z,8.35
2023-04-14T15:02:50.378Z,6.32
2023-04-14T15:05:18.954Z,5.35
2023-04-14T15:07:47.588Z,8.35
2023-04-14T15:10:16.362Z,7.25
2023-04-14T15:15:12.882Z,7.90
2023-04-14T15:17:41.106Z,8.18
2023-04-14T15:22:01.317Z,8.02
2023-04-14T15:24:29.668Z,8.25
2023-04-14T15:26:57.800Z,8.18
2023-04-14T15:29:26.239Z,9.88
2023-04-14T15:31:54.589Z,8.05
2023-04-14T15:34:23.045Z,8.27
2023-04-14T15:36:51.248Z,6.82
2023-04-14T15:39:19.531Z,7.88
2023-04-14T15:41:47.701Z,6.25
2023-04-14T15:44:16.237Z,7.43
2023-04-14T15:46:44.346Z,10.27
2023-04-14T15:49:12.654Z,5.63
2023-04-14T15:51:40.898Z,5.43
2023-04-14T15:54:09.170Z,5.72
2023-04-14T15:56:37.242Z,8.60
2023-04-14T15:59:05.547Z,8.90
2023-04-14T16:01:33.752Z,7.63
2023-04-14T16:04:02.424Z,8.02
2023-04-14T16:06:31.262Z,6.72
2023-04-14T16:08:59.915Z,5.10
2023-04-14T16:16:25.193Z,8.13
2023-04-14T16:18:53.521Z,8.32
2023-04-14T16:21:21.707Z,5.88
2023-04-14T16:23:50.070Z,7.53
2023-04-14T16:26:18.229Z,5.57
2023-04-14T16:28:46.520Z,9.52
2023-04-14T16:31:14.643Z,5.90
2023-04-14T16:33:42.825Z,8.07
2023-04-14T16:36:11.145Z,7.30
2023-04-14T16:38:39.208Z,5.95
2023-04-14T16:41:07.386Z,6.93
2023-04-14T16:43:35.601Z,9.65
2023-04-14T16:46:04.943Z,8.45
2023-04-14T16:48:33.411Z,5.25
2023-04-14T16:51:08.010Z,5.53
2023-04-14T16:53:36.943Z,7.55
2023-04-14T16:56:06.250Z,5.88
2023-04-14T16:58:34.796Z,5.20
2023-04-14T17:01:03.278Z,7.40
2023-04-14T17:03:31.928Z,8.20
2023-04-14T17:08:28.281Z,7.38
2023-04-14T17:10:56.775Z,6.90
2023-04-14T17:13:25.086Z,5.60
2023-04-14T17:16:05.570Z,7.68
2023-04-14T17:18:37.624Z,5.47
2023-04-14T17:21:07.032Z,8.30
2023-04-14T17:23:38.570Z,6.43
2023-04-14T17:26:06.849Z,6.85
2023-04-14T17:28:34.973Z,6.18
2023-04-14T17:31:10.801Z,7.05
2023-04-14T17:33:39.467Z,7.72
2023-04-14T17:36:09.150Z,8.45
2023-04-14T17:38:37.557Z,7.50
2023-04-14T17:41:09.530Z,6.93
2023-04-14T17:43:39.305Z,7.60
2023-04-14T17:46:08.788Z,7.88
2023-04-14T17:48:37.118Z,7.38
2023-04-14T17:51:05.595Z,6.68
2023-04-14T17:53:34.047Z,6.30
2023-04-14T17:56:02.404Z,5.00
2023-04-14T17:58:30.777Z,7.75
2023-04-14T18:00:59.477Z,7.10
2023-04-14T18:03:27.746Z,5.82
2023-04-14T18:05:56.072Z,6.55
2023-04-14T18:08:24.514Z,5.25
2023-04-14T18:10:52.620Z,6.32
2023-04-14T18:13:20.992Z,7.75
2023-04-14T18:15:50.434Z,6.40
2023-04-14T18:18:18.523Z,5.32
2023-04-14T18:20:49.650Z,5.90
2023-04-14T18:23:18.113Z,4.97
2023-04-14T18:28:17.305Z,7.05
2023-04-14T18:30:52.566Z,4.65
2023-04-14T18:33:20.844Z,4.93
2023-04-14T18:35:57.474Z,6.35
2023-04-14T18:38:26.216Z,6.47
2023-04-14T18:43:22.314Z,6.13
2023-04-14T18:45:50.630Z,6.40
2023-04-14T18:48:19.047Z,5.40
2023-04-14T18:50:47.242Z,4.50
2023-04-14T18:53:15.472Z,5.30
2023-04-14T18:55:45.459Z,5.63
2023-04-14T18:58:14.620Z,3.20
2023-04-14T19:00:46.008Z,8.68
2023-04-14T19:03:14.439Z,5.70
2023-04-14T19:05:42.911Z,5.97
2023-04-14T19:08:11.108Z,7.07
2023-04-14T19:10:39.338Z,6.93
2023-04-14T19:13:07.822Z,8.65
2023-04-14T19:15:35.855Z,8.18
2023-04-14T19:18:04.109Z,6.40
2023-04-14T19:20:32.543Z,11.63
2023-04-14T19:23:00.944Z,8.82
2023-04-14T19:25:29.234Z,14.73
2023-04-14T19:27:57.594Z,8.90
2023-04-14T19:30:26.117Z,8.43
2023-04-14T19:32:56.471Z,9.52
2023-04-14T19:35:24.696Z,9.18
2023-04-14T19:37:52.921Z,12.90
2023-04-14T19:40:21.245Z,10.88
2023-04-14T19:42:49.337Z,15.38
2023-04-14T19:45:17.643Z,10.90
2023-04-14T19:47:45.958Z,10.02
2023-04-14T19:50:14.438Z,9.95
2023-04-14T19:52:44.866Z,11.52
2023-04-14T19:55:13.474Z,8.85
2023-04-14T19:57:41.726Z,11.43
2023-04-14T20:00:10.563Z,10.25
2023-04-14T20:02:42.024Z,9.40
2023-04-14T20:05:10.492Z,8.50
2023-04-14T20:07:38.984Z,13.05
2023-04-14T20:10:08.084Z,11.07
2023-04-14T20:12:36.247Z,9.55
2023-04-14T20:15:04.968Z,10.35
2023-04-14T20:17:35.237Z,11.18
2023-04-14T20:20:12.745Z,10.15
2023-04-14T20:22:41.146Z,9.65
2023-04-14T20:25:09.416Z,9.55
2023-04-14T20:27:37.800Z,11.88
2023-04-14T20:30:07.335Z,9.45
2023-04-14T20:32:35.861Z,9.48
2023-04-14T20:35:10.885Z,12.95
2023-04-14T20:37:39.203Z,8.95
2023-04-14T20:40:08.036Z,10.85
2023-04-14T20:42:39.292Z,8.30
2023-04-14T20:45:10.695Z,9.35
2023-04-14T20:47:39.055Z,9.70
2023-04-14T20:50:08.069Z,9.00
2023-04-14T20:52:36.321Z,9.45
2023-04-14T20:55:04.880Z,8.20
2023-04-14T20:57:33.121Z,11.25
2023-04-14T21:00:01.353Z,8.80
2023-04-14T21:02:29.767Z,6.93
2023-04-14T21:04:58.023Z,9.05
2023-04-14T21:07:26.583Z,10.07
2023-04-14T21:09:54.705Z,9.55
2023-04-14T21:12:23.166Z,8.50
2023-04-14T21:15:40.890Z,8.48
2023-04-14T21:17:42.309Z,9.48
2023-04-14T21:20:11.275Z,12.68
2023-04-14T21:22:39.783Z,8.85
2023-04-14T21:25:08.512Z,9.65
2023-04-14T21:27:36.950Z,12.70
2023-04-14T21:30:05.626Z,8.98
2023-04-14T21:35:01.929Z,11.32
2023-04-14T21:37:30.128Z,8.63
2023-04-14T21:39:58.508Z,11.70
2023-04-14T21:42:26.818Z,10.73
2023-04-14T21:44:55.257Z,8.73
2023-04-14T21:47:23.471Z,11.25
2023-04-14T21:49:51.691Z,9.85
2023-04-14T21:54:48.300Z,10.87
2023-04-14T21:57:16.748Z,9.38
2023-04-14T21:59:44.959Z,8.60
2023-04-14T22:02:13.390Z,10.02
2023-04-14T22:04:41.612Z,9.18
2023-04-14T22:07:09.957Z,11.25
2023-04-14T22:09:38.196Z,12.38
2023-04-14T22:12:06.460Z,11.57
2023-04-14T22:14:34.694Z,11.20
2023-04-14T22:17:03.099Z,9.23
2023-04-14T22:19:31.498Z,11.57
2023-04-14T22:22:00.041Z,9.93
2023-04-14T22:24:28.200Z,10.68
2023-04-14T22:26:56.873Z,10.43
2023-04-14T22:29:25.111Z,11.88
2023-04-14T22:31:53.561Z,9.95
2023-04-14T22:34:21.649Z,8.98
2023-04-14T22:36:50.355Z,9.80
2023-04-14T22:39:18.559Z,9.38
2023-04-14T22:41:46.860Z,9.05
2023-04-14T22:44:15.033Z,12.10
2023-04-14T22:46:43.643Z,11.35
2023-04-14T22:49:11.958Z,9.18
2023-04-14T22:51:40.144Z,11.00
2023-04-14T22:54:09.476Z,12.38
2023-04-14T22:56:37.667Z,9.15
2023-04-14T22:59:05.862Z,10.45
2023-04-14T23:01:34.442Z,11.10
2023-04-14T23:04:02.679Z,9.27
2023-04-14T23:06:31.134Z,11.05
2023-04-14T23:08:59.719Z,9.43
2023-04-14T23:13:56.016Z,10.18
2023-04-14T23:16:24.337Z,9.00
2023-04-14T23:18:52.705Z,10.25
2023-04-14T23:21:21.879Z,9.32
2023-04-14T23:23:50.503Z,11.65
2023-04-14T23:28:47.609Z,10.80
2023-04-14T23:33:43.660Z,11.37
2023-04-14T23:36:12.217Z,8.63
2023-04-14T23:38:40.539Z,7.70
2023-04-14T23:41:08.976Z,11.80
2023-04-14T23:43:37.149Z,9.98
2023-04-14T23:46:05.631Z,8.98
2023-04-14T23:48:33.920Z,10.32
2023-04-14T23:51:16.262Z,9.02
2023-04-14T23:53:45.381Z,14.02
2023-04-14T23:56:13.505Z,10.82
2023-04-14T23:58:41.842Z,11.10
